Garland's Hourly Summary for Monday, March 13, 2017
Hour Temp
(f)
RH
(%)
Solar Rad.
(MJ/m2)
Rainfall
(in)
Wind
(mph)
3/13/2017 12:00 AM 47 71 0 0 4.39
3/13/2017 1:00 AM 47 72 0 0 5.08
3/13/2017 2:00 AM 47 76 0 0 4.4
3/13/2017 3:00 AM 47 77 0 0 4.4
3/13/2017 4:00 AM 47 77 0 0 4.95
3/13/2017 5:00 AM 47 79 0 0 3.77
3/13/2017 6:00 AM 47 83 0 0 3.08
3/13/2017 7:00 AM 47 89 0 0 3.54
3/13/2017 8:00 AM 47 84 0.01 0 3.12
3/13/2017 9:00 AM 47 80 0.08 0 1.57
3/13/2017 10:00 AM 48 77 0.17 0 3.04
3/13/2017 11:00 AM 50 69 0.96 0 6.62
3/13/2017 12:00 PM 51 66 1.06 0 9.05
3/13/2017 1:00 PM 52 61 1.22 0 9.76
3/13/2017 2:00 PM 54 48 2.53 0 7.95
3/13/2017 3:00 PM 58 38 2.76 0 9.49
3/13/2017 4:00 PM 60 32 2.34 0 10.21
3/13/2017 5:00 PM 60 26 1.82 0 10.03
3/13/2017 6:00 PM 59 27 1 0 9.81
3/13/2017 7:00 PM 57 26 0.22 0 10.03
3/13/2017 8:00 PM 52 25 0.03 0 9.32
3/13/2017 9:00 PM 50 26 0 0 7.34
3/13/2017 10:00 PM 48 28 0 0 7.83
3/13/2017 11:00 PM 46 32 0 0 7.09
Data Summary 50 57 14.20 0.00 6.49